LFBC 221730Z AUTO 33007KT CAVOK 26/13 Q1020 NOSIG
LFBD 221730Z AUTO 01007KT 340V040 CAVOK 29/10 Q1020 NOSIG